createdAt,value
2022-12-24T00:01:33.124Z,3.63
2022-12-24T00:03:59.480Z,4.10
2022-12-24T00:06:25.837Z,3.93
2022-12-24T00:08:52.221Z,4.23
2022-12-24T00:11:19.036Z,3.40
2022-12-24T00:13:45.241Z,4.10
2022-12-24T00:16:12.073Z,3.93
2022-12-24T00:18:43.543Z,3.50
2022-12-24T00:21:12.267Z,4.03
2022-12-24T00:23:39.891Z,4.20
2022-12-24T00:26:06.130Z,3.57
2022-12-24T00:28:32.308Z,4.57
2022-12-24T00:30:58.619Z,3.90
2022-12-24T00:33:25.570Z,4.07
2022-12-24T00:35:52.413Z,3.97
2022-12-24T00:38:18.834Z,4.40
2022-12-24T00:40:45.215Z,4.00
2022-12-24T00:43:11.449Z,5.13
2022-12-24T00:45:37.679Z,3.93
2022-12-24T00:48:04.077Z,4.37
2022-12-24T00:50:30.902Z,4.13
2022-12-24T00:52:57.093Z,3.97
2022-12-24T00:55:23.268Z,3.93
2022-12-24T00:57:49.523Z,4.23
2022-12-24T01:00:17.205Z,4.73
2022-12-24T01:02:43.579Z,4.87
2022-12-24T01:05:10.168Z,4.30
2022-12-24T01:07:38.458Z,4.60
2022-12-24T01:10:06.671Z,3.73
2022-12-24T01:12:33.150Z,4.23
2022-12-24T01:14:59.424Z,4.03
2022-12-24T01:17:26.905Z,4.43
2022-12-24T01:19:54.490Z,4.97
2022-12-24T01:22:20.706Z,4.33
2022-12-24T01:24:47.821Z,5.07
2022-12-24T01:27:14.295Z,3.90
2022-12-24T01:29:41.348Z,4.80
2022-12-24T01:32:07.622Z,3.30
2022-12-24T01:34:33.873Z,4.23
2022-12-24T01:37:00.093Z,4.13
2022-12-24T01:39:30.323Z,3.93
2022-12-24T01:42:15.611Z,5.80
2022-12-24T01:44:42.915Z,4.50
2022-12-24T01:47:12.699Z,3.67
2022-12-24T01:49:42.474Z,5.00
2022-12-24T01:52:11.235Z,4.43
2022-12-24T01:54:41.399Z,4.37
2022-12-24T01:57:10.765Z,4.87
2022-12-24T01:59:37.441Z,3.90
2022-12-24T02:02:04.065Z,4.50
2022-12-24T02:04:34.008Z,4.07
2022-12-24T02:07:00.377Z,4.57
2022-12-24T02:09:26.754Z,4.20
2022-12-24T02:11:53.048Z,4.80
2022-12-24T02:14:20.034Z,4.50
2022-12-24T02:16:51.015Z,4.13
2022-12-24T02:19:33.982Z,3.57
2022-12-24T02:22:02.135Z,3.90
2022-12-24T02:25:16.142Z,3.73
2022-12-24T02:27:51.428Z,3.43
2022-12-24T02:30:19.836Z,3.77
2022-12-24T02:33:01.419Z,3.90
2022-12-24T02:35:35.969Z,3.60
2022-12-24T02:38:05.850Z,4.33
2022-12-24T02:40:37.801Z,4.00
2022-12-24T02:43:08.098Z,4.20
2022-12-24T02:45:35.784Z,3.30
2022-12-24T02:48:06.089Z,3.70
2022-12-24T02:50:32.350Z,4.23
2022-12-24T02:52:58.688Z,4.33
2022-12-24T02:55:33.070Z,3.80
2022-12-24T02:58:09.694Z,4.33
2022-12-24T03:00:44.752Z,4.43
2022-12-24T03:03:27.695Z,4.53
2022-12-24T03:06:00.835Z,4.10
2022-12-24T03:08:33.053Z,4.03
2022-12-24T03:11:02.738Z,3.87
2022-12-24T03:13:29.658Z,3.50
2022-12-24T03:15:56.780Z,3.77
2022-12-24T03:18:24.794Z,4.20
2022-12-24T03:20:55.795Z,4.43
2022-12-24T03:23:22.031Z,3.43
2022-12-24T03:25:48.681Z,4.00
2022-12-24T03:28:16.531Z,3.43
2022-12-24T03:30:43.842Z,4.27
2022-12-24T03:33:10.714Z,4.33
2022-12-24T03:35:37.005Z,3.50
2022-12-24T03:38:03.636Z,3.63
2022-12-24T03:40:30.061Z,4.00
2022-12-24T03:42:56.307Z,3.37
2022-12-24T03:45:22.840Z,3.33
2022-12-24T03:47:49.268Z,3.10
2022-12-24T03:50:16.305Z,4.07
2022-12-24T03:52:43.293Z,3.23
2022-12-24T03:55:09.452Z,3.23
2022-12-24T03:57:35.757Z,3.07
2022-12-24T04:00:03.019Z,3.00
2022-12-24T04:02:29.253Z,3.00
2022-12-24T04:04:55.549Z,3.10
2022-12-24T04:07:22.524Z,3.10
2022-12-24T04:09:48.870Z,3.10
2022-12-24T04:12:14.976Z,3.50
2022-12-24T04:14:41.170Z,2.43
2022-12-24T04:17:07.516Z,2.60
2022-12-24T04:19:33.684Z,2.70
2022-12-24T04:21:59.939Z,3.83
2022-12-24T04:24:26.870Z,3.10
2022-12-24T04:26:53.119Z,2.97
2022-12-24T04:29:19.612Z,2.80
2022-12-24T04:31:45.878Z,2.90
2022-12-24T04:34:12.183Z,2.37
2022-12-24T04:36:38.389Z,3.53
2022-12-24T04:39:04.625Z,2.83
2022-12-24T04:41:31.818Z,2.57
2022-12-24T04:43:58.539Z,2.50
2022-12-24T04:46:26.455Z,2.63
2022-12-24T04:48:54.000Z,2.53
2022-12-24T04:51:21.017Z,3.07
2022-12-24T04:53:47.334Z,2.53
2022-12-24T04:56:15.066Z,2.53
2022-12-24T04:58:42.437Z,2.80
2022-12-24T05:01:13.173Z,2.23
2022-12-24T05:03:39.709Z,2.60
2022-12-24T05:06:08.189Z,2.80
2022-12-24T05:08:34.519Z,2.37
2022-12-24T05:11:01.609Z,2.70
2022-12-24T05:13:36.552Z,2.80
2022-12-24T05:16:07.820Z,2.60
2022-12-24T05:18:34.226Z,2.53
2022-12-24T05:21:00.550Z,2.53
2022-12-24T05:23:45.068Z,3.20
2022-12-24T05:26:24.263Z,2.50
2022-12-24T05:28:51.591Z,2.67
2022-12-24T05:31:18.950Z,2.50
2022-12-24T05:33:45.243Z,2.77
2022-12-24T05:36:11.763Z,3.20
2022-12-24T05:38:38.222Z,3.27
2022-12-24T05:41:04.955Z,3.20
2022-12-24T05:43:31.205Z,3.20
2022-12-24T05:45:58.703Z,3.63
2022-12-24T05:48:25.729Z,2.57
2022-12-24T05:50:52.111Z,2.93
2022-12-24T05:53:18.505Z,2.63
2022-12-24T05:55:44.822Z,3.50
2022-12-24T05:58:11.027Z,2.37
2022-12-24T06:00:37.440Z,3.20
2022-12-24T06:03:03.851Z,3.10
2022-12-24T06:05:30.857Z,2.93
2022-12-24T06:07:57.070Z,3.57
2022-12-24T06:10:23.694Z,3.13
2022-12-24T06:12:49.950Z,3.37
2022-12-24T06:15:23.539Z,3.77
2022-12-24T06:17:50.529Z,3.37
2022-12-24T06:20:16.910Z,2.97
2022-12-24T06:22:46.595Z,3.63
2022-12-24T06:25:13.897Z,3.23
2022-12-24T06:27:40.185Z,3.50
2022-12-24T06:30:07.784Z,3.50
2022-12-24T06:32:34.082Z,3.40
2022-12-24T06:35:00.352Z,3.47
2022-12-24T06:37:26.642Z,4.00
2022-12-24T06:39:53.623Z,4.17
2022-12-24T06:42:19.760Z,5.17
2022-12-24T06:44:46.090Z,3.77
2022-12-24T06:47:12.407Z,4.50
2022-12-24T06:49:38.665Z,3.73
2022-12-24T06:52:04.888Z,5.00
2022-12-24T06:54:31.224Z,4.63
2022-12-24T06:56:58.179Z,4.53
2022-12-24T06:59:24.468Z,4.40
2022-12-24T07:01:50.821Z,4.50
2022-12-24T07:04:20.517Z,4.20
2022-12-24T07:06:47.108Z,4.93
2022-12-24T07:09:13.557Z,4.07
2022-12-24T07:11:40.153Z,4.30
2022-12-24T07:14:07.245Z,4.40
2022-12-24T07:16:33.826Z,4.63
2022-12-24T07:19:00.346Z,3.83
2022-12-24T07:21:26.687Z,4.60
2022-12-24T07:23:52.877Z,4.77
2022-12-24T07:26:19.139Z,4.00
2022-12-24T07:28:45.407Z,4.23
2022-12-24T07:31:12.516Z,4.63
2022-12-24T07:33:38.846Z,4.30
2022-12-24T07:36:07.581Z,4.17
2022-12-24T07:38:40.137Z,4.53
2022-12-24T07:41:08.895Z,4.10
2022-12-24T07:43:35.037Z,3.87
2022-12-24T07:46:01.736Z,4.27
2022-12-24T07:48:29.404Z,5.50
2022-12-24T07:50:56.566Z,3.87
2022-12-24T07:53:23.048Z,3.73
2022-12-24T07:55:49.340Z,4.87
2022-12-24T07:58:15.676Z,4.33
2022-12-24T08:00:42.069Z,4.90
2022-12-24T08:03:10.712Z,4.87
2022-12-24T08:05:37.767Z,5.27
2022-12-24T08:08:04.098Z,3.90
2022-12-24T08:10:30.385Z,4.27
2022-12-24T08:12:56.565Z,4.40
2022-12-24T08:15:22.781Z,4.13
2022-12-24T08:17:48.993Z,5.07
2022-12-24T08:20:16.517Z,4.97
2022-12-24T08:22:43.442Z,4.13
2022-12-24T08:25:10.082Z,4.57
2022-12-24T08:27:36.344Z,4.77
2022-12-24T08:30:03.032Z,4.53
2022-12-24T08:32:31.430Z,4.93
2022-12-24T08:34:57.717Z,3.90
2022-12-24T08:37:23.957Z,4.37
2022-12-24T08:39:51.067Z,4.27
2022-12-24T08:42:17.538Z,5.37
2022-12-24T08:44:43.861Z,4.10
2022-12-24T08:47:10.133Z,4.43
2022-12-24T08:49:36.278Z,5.10
2022-12-24T08:52:02.500Z,4.50
2022-12-24T08:54:28.770Z,4.53
2022-12-24T08:56:55.591Z,4.40
2022-12-24T08:59:22.010Z,4.17
2022-12-24T09:01:48.336Z,3.73
2022-12-24T09:04:14.606Z,4.33
2022-12-24T09:06:40.882Z,4.77
2022-12-24T09:09:07.900Z,4.97
2022-12-24T09:11:35.032Z,3.77
2022-12-24T09:14:02.543Z,3.97
2022-12-24T09:16:28.842Z,4.47
2022-12-24T09:18:56.351Z,4.47
2022-12-24T09:21:22.592Z,4.00
2022-12-24T09:23:48.955Z,4.33
2022-12-24T09:26:17.335Z,4.73
2022-12-24T09:28:44.095Z,5.73
2022-12-24T09:31:15.044Z,4.50
2022-12-24T09:33:42.534Z,3.83
2022-12-24T09:36:09.522Z,4.00
2022-12-24T09:38:36.301Z,4.47
2022-12-24T09:41:11.901Z,4.13
2022-12-24T09:43:38.915Z,4.20
2022-12-24T09:46:09.553Z,4.57
2022-12-24T09:48:39.186Z,5.00
2022-12-24T09:51:08.450Z,4.33
2022-12-24T09:53:40.061Z,4.37
2022-12-24T09:56:10.746Z,4.73
2022-12-24T09:58:39.195Z,4.53
2022-12-24T10:01:06.298Z,5.33
2022-12-24T10:03:32.704Z,4.30
2022-12-24T10:06:06.131Z,5.73
2022-12-24T10:08:40.830Z,4.63
2022-12-24T10:11:11.952Z,4.87
2022-12-24T10:13:52.267Z,4.60
2022-12-24T10:16:23.139Z,4.53
2022-12-24T10:18:55.266Z,4.37
2022-12-24T10:21:28.212Z,5.00
2022-12-24T10:23:59.405Z,4.70
2022-12-24T10:26:27.782Z,4.30
2022-12-24T10:28:56.584Z,5.60
2022-12-24T10:31:25.806Z,4.80
2022-12-24T10:33:57.347Z,5.13
2022-12-24T10:36:27.388Z,5.10
2022-12-24T10:38:53.895Z,5.90
2022-12-24T10:41:20.070Z,4.17
2022-12-24T10:43:47.488Z,4.40
2022-12-24T10:46:19.498Z,4.33
2022-12-24T10:48:51.194Z,5.07
2022-12-24T10:51:22.270Z,4.93
2022-12-24T10:53:52.303Z,5.37
2022-12-24T10:56:19.284Z,5.63
2022-12-24T10:58:46.504Z,5.00
2022-12-24T11:01:13.211Z,4.83
2022-12-24T11:03:39.595Z,5.03
2022-12-24T11:06:10.975Z,4.40
2022-12-24T11:08:39.831Z,5.03
2022-12-24T11:11:09.427Z,4.97
2022-12-24T11:13:39.455Z,4.73
2022-12-24T11:16:08.169Z,3.90
2022-12-24T11:18:36.167Z,5.03
2022-12-24T11:21:03.223Z,5.50
2022-12-24T11:23:29.691Z,5.43
2022-12-24T11:25:57.087Z,4.70
2022-12-24T11:28:25.646Z,5.40
2022-12-24T11:31:03.614Z,5.37
2022-12-24T11:33:30.579Z,4.10
2022-12-24T11:36:10.651Z,4.27
2022-12-24T11:38:37.301Z,5.00
2022-12-24T11:41:06.752Z,5.10
2022-12-24T11:43:45.713Z,4.63
2022-12-24T11:46:35.077Z,4.27
2022-12-24T11:49:12.826Z,3.83
2022-12-24T11:51:43.623Z,3.40
2022-12-24T11:54:15.851Z,4.70
2022-12-24T11:56:44.617Z,4.30
2022-12-24T11:59:16.985Z,4.47
2022-12-24T12:01:49.160Z,4.57
2022-12-24T12:04:18.587Z,4.43
2022-12-24T12:06:47.718Z,4.57
2022-12-24T12:09:17.747Z,4.03
2022-12-24T12:11:45.096Z,4.23
2022-12-24T12:14:18.964Z,4.97
2022-12-24T12:17:00.799Z,4.63
2022-12-24T12:19:29.632Z,4.43
2022-12-24T12:21:55.887Z,4.40
2022-12-24T12:24:31.653Z,4.30
2022-12-24T12:27:04.776Z,4.50
2022-12-24T12:29:33.474Z,4.40
2022-12-24T12:32:04.742Z,4.23
2022-12-24T12:34:36.126Z,5.20
2022-12-24T12:37:12.647Z,4.57
2022-12-24T12:39:40.851Z,4.67
2022-12-24T12:42:15.361Z,5.90
2022-12-24T12:44:54.621Z,4.80
2022-12-24T12:47:53.162Z,4.47
2022-12-24T12:50:24.706Z,4.37
2022-12-24T12:53:01.015Z,4.13
2022-12-24T12:55:36.780Z,4.97
2022-12-24T12:58:04.912Z,3.83
2022-12-24T13:00:35.040Z,4.10
2022-12-24T13:03:37.327Z,4.33
2022-12-24T13:06:39.044Z,3.70
2022-12-24T13:09:47.923Z,4.20
2022-12-24T13:12:32.778Z,4.47
2022-12-24T13:15:09.231Z,3.70
2022-12-24T13:17:50.006Z,4.43
2022-12-24T13:20:23.785Z,4.43
2022-12-24T13:22:55.800Z,3.50
2022-12-24T13:25:26.246Z,3.93
2022-12-24T13:27:52.732Z,3.53
2022-12-24T13:30:37.284Z,4.30
2022-12-24T13:33:04.941Z,3.93
2022-12-24T13:35:38.266Z,3.53
2022-12-24T13:38:41.536Z,3.67
2022-12-24T13:41:40.465Z,3.70
2022-12-24T13:44:19.240Z,4.87
2022-12-24T13:46:50.350Z,3.13
2022-12-24T13:49:19.898Z,3.13
2022-12-24T13:51:46.338Z,4.10
2022-12-24T13:54:13.784Z,3.00
2022-12-24T13:56:41.523Z,3.00
2022-12-24T13:59:22.624Z,3.23
2022-12-24T14:01:49.020Z,3.47
2022-12-24T14:04:24.111Z,3.30
2022-12-24T14:06:51.906Z,3.07
2022-12-24T14:09:19.403Z,3.00
2022-12-24T14:12:16.488Z,4.50
2022-12-24T14:14:43.287Z,2.97
2022-12-24T14:17:14.529Z,3.30
2022-12-24T14:19:42.950Z,2.93
2022-12-24T14:22:22.447Z,3.87
2022-12-24T14:24:52.976Z,2.90
2022-12-24T14:27:21.717Z,3.53
2022-12-24T14:29:50.656Z,4.20
2022-12-24T14:32:17.025Z,3.67
2022-12-24T14:34:44.023Z,3.93
2022-12-24T14:37:11.783Z,3.47
2022-12-24T14:39:41.549Z,3.53
2022-12-24T14:42:20.667Z,4.43
2022-12-24T14:44:53.012Z,4.03
2022-12-24T14:47:26.065Z,3.77
2022-12-24T14:50:10.974Z,3.40
2022-12-24T14:55:31.073Z,3.40
2022-12-24T14:58:21.018Z,4.17
2022-12-24T15:00:49.816Z,4.43
2022-12-24T15:03:18.000Z,3.63
2022-12-24T15:05:50.719Z,4.03
2022-12-24T15:08:18.582Z,4.27
2022-12-24T15:10:46.922Z,4.07
2022-12-24T15:13:22.515Z,4.20
2022-12-24T15:15:52.675Z,4.33
2022-12-24T15:18:22.670Z,4.53
2022-12-24T15:20:52.299Z,4.50
2022-12-24T15:23:19.991Z,4.07
2022-12-24T15:25:46.364Z,4.20
2022-12-24T15:28:17.514Z,3.90
2022-12-24T15:30:43.939Z,3.93
2022-12-24T15:33:10.571Z,4.33
2022-12-24T15:35:51.151Z,4.60
2022-12-24T15:38:26.142Z,5.00
2022-12-24T15:40:52.962Z,5.83
2022-12-24T15:43:19.542Z,4.33
2022-12-24T15:45:47.561Z,4.33
2022-12-24T15:48:20.313Z,4.53
2022-12-24T15:50:47.646Z,5.30
2022-12-24T15:53:20.700Z,8.07
2022-12-24T15:56:01.216Z,4.60
2022-12-24T15:58:29.174Z,5.57
2022-12-24T16:01:13.597Z,5.97
2022-12-24T16:03:41.440Z,5.13
2022-12-24T16:06:10.506Z,5.27
2022-12-24T16:08:38.356Z,4.93
2022-12-24T16:11:11.048Z,4.87
2022-12-24T16:13:39.686Z,5.40
2022-12-24T16:16:09.512Z,7.60
2022-12-24T16:18:37.542Z,5.47
2022-12-24T16:21:05.184Z,5.07
2022-12-24T16:23:37.050Z,5.33
2022-12-24T16:26:03.623Z,5.40
2022-12-24T16:28:30.822Z,6.63
2022-12-24T16:30:57.171Z,6.87
2022-12-24T16:33:23.479Z,5.87
2022-12-24T16:35:50.206Z,6.20
2022-12-24T16:38:16.460Z,6.87
2022-12-24T16:40:43.715Z,6.37
2022-12-24T16:43:33.984Z,7.60
2022-12-24T16:46:02.167Z,7.30
2022-12-24T16:48:29.020Z,6.97
2022-12-24T16:50:55.440Z,6.50
2022-12-24T16:53:22.592Z,7.33
2022-12-24T16:55:50.999Z,6.80
2022-12-24T16:58:18.907Z,6.87
2022-12-24T17:00:45.370Z,5.90
2022-12-24T17:03:12.370Z,5.63
2022-12-24T17:05:39.828Z,5.63
2022-12-24T17:08:06.883Z,5.80
2022-12-24T17:10:33.218Z,6.97
2022-12-24T17:13:00.118Z,5.37
2022-12-24T17:15:26.516Z,5.93
2022-12-24T17:17:52.808Z,8.40
2022-12-24T17:20:23.953Z,5.83
2022-12-24T17:22:50.688Z,6.03
2022-12-24T17:25:16.958Z,5.37
2022-12-24T17:27:43.252Z,5.10
2022-12-24T17:30:11.147Z,5.50
2022-12-24T17:32:38.761Z,4.83
2022-12-24T17:35:06.153Z,5.97
2022-12-24T17:37:32.461Z,5.77
2022-12-24T17:39:58.830Z,7.00
2022-12-24T17:42:25.078Z,8.17
2022-12-24T17:44:51.338Z,6.50
2022-12-24T17:47:18.282Z,7.20
2022-12-24T17:49:44.763Z,6.90
2022-12-24T17:52:11.286Z,6.77
2022-12-24T17:54:40.399Z,10.63
2022-12-24T17:57:06.549Z,10.70
2022-12-24T17:59:32.811Z,8.17
2022-12-24T18:01:59.199Z,6.27
2022-12-24T18:04:26.170Z,8.67
2022-12-24T18:06:57.776Z,7.63
2022-12-24T18:09:28.268Z,13.83
2022-12-24T18:11:54.479Z,8.73
2022-12-24T18:14:20.787Z,8.80
2022-12-24T18:16:47.908Z,8.00
2022-12-24T18:19:14.328Z,7.30
2022-12-24T18:21:41.356Z,9.20
2022-12-24T18:24:08.631Z,13.33
2022-12-24T18:26:35.020Z,12.30
2022-12-24T18:29:03.585Z,12.30
2022-12-24T18:31:31.169Z,11.73
2022-12-24T18:33:57.612Z,14.83
2022-12-24T18:36:24.247Z,13.60
2022-12-24T18:38:51.430Z,14.67
2022-12-24T18:41:19.355Z,15.67
2022-12-24T18:43:45.532Z,16.93
2022-12-24T18:46:13.137Z,13.60
2022-12-24T18:48:39.616Z,9.57
2022-12-24T18:51:07.076Z,9.77
2022-12-24T18:53:33.415Z,11.77
2022-12-24T18:56:04.042Z,16.90
2022-12-24T18:58:30.271Z,22.00
2022-12-24T19:00:56.505Z,17.03
2022-12-24T19:03:23.162Z,14.67
2022-12-24T19:05:49.341Z,12.67
2022-12-24T19:08:47.080Z,13.43
2022-12-24T19:11:03.365Z,14.03
2022-12-24T19:13:29.578Z,15.10
2022-12-24T19:15:55.959Z,14.10
2022-12-24T19:18:23.915Z,12.20
2022-12-24T19:20:50.228Z,13.47
2022-12-24T19:23:16.473Z,13.33
2022-12-24T19:25:42.871Z,16.90
2022-12-24T19:28:09.870Z,14.87
2022-12-24T19:30:37.316Z,15.17
2022-12-24T19:33:03.549Z,13.60
2022-12-24T19:35:30.465Z,12.17
2022-12-24T19:37:56.636Z,16.13
2022-12-24T19:40:22.895Z,19.03
2022-12-24T19:42:51.402Z,17.83
2022-12-24T19:45:18.500Z,16.70
2022-12-24T19:47:44.799Z,21.53
2022-12-24T19:50:11.187Z,12.90
2022-12-24T19:52:37.407Z,12.63
2022-12-24T19:55:04.332Z,12.53
2022-12-24T19:57:30.526Z,12.33
2022-12-24T19:59:56.867Z,13.17
2022-12-24T20:02:23.941Z,11.00
2022-12-24T20:04:50.668Z,11.80
2022-12-24T20:07:16.893Z,10.60
2022-12-24T20:09:43.248Z,12.00
2022-12-24T20:12:09.572Z,11.47
2022-12-24T20:14:35.813Z,11.20
2022-12-24T20:17:02.193Z,11.87
2022-12-24T20:19:29.145Z,12.73
2022-12-24T20:21:55.693Z,11.50
2022-12-24T20:24:22.179Z,12.10
2022-12-24T20:26:48.570Z,11.20
2022-12-24T20:29:15.554Z,11.20
2022-12-24T20:31:41.949Z,10.13
2022-12-24T20:34:08.797Z,10.33
2022-12-24T20:36:37.210Z,11.00
2022-12-24T20:39:04.329Z,10.67
2022-12-24T20:41:31.992Z,11.47
2022-12-24T20:43:59.447Z,12.60
2022-12-24T20:46:26.610Z,10.93
2022-12-24T20:48:52.852Z,11.57
2022-12-24T20:51:24.203Z,10.37
2022-12-24T20:53:52.493Z,12.00
2022-12-24T20:56:18.683Z,15.00
2022-12-24T20:58:45.102Z,11.43
2022-12-24T21:01:12.814Z,12.33
2022-12-24T21:03:39.337Z,10.40
2022-12-24T21:06:05.933Z,10.77
2022-12-24T21:08:32.379Z,10.10
2022-12-24T21:11:17.909Z,10.00
2022-12-24T21:13:44.046Z,10.70
2022-12-24T21:16:10.234Z,9.40
2022-12-24T21:18:39.238Z,10.80
2022-12-24T21:21:05.578Z,10.03
2022-12-24T21:23:31.787Z,10.20
2022-12-24T21:26:00.097Z,9.93
2022-12-24T21:28:26.756Z,9.60
2022-12-24T21:30:53.185Z,10.17
2022-12-24T21:33:19.835Z,10.23
2022-12-24T21:35:46.167Z,10.37
2022-12-24T21:38:12.379Z,11.23
2022-12-24T21:40:38.598Z,11.80
2022-12-24T21:43:06.644Z,11.43
2022-12-24T21:45:33.241Z,12.30
2022-12-24T21:48:19.548Z,11.23
2022-12-24T21:51:03.028Z,11.03
2022-12-24T21:53:47.489Z,11.40
2022-12-24T21:56:13.742Z,9.53
2022-12-24T21:58:40.287Z,10.03
2022-12-24T22:01:07.658Z,10.30
2022-12-24T22:03:34.105Z,9.30
2022-12-24T22:06:00.638Z,9.50
2022-12-24T22:08:44.875Z,9.47
2022-12-24T22:11:30.344Z,9.90
2022-12-24T22:13:58.262Z,9.17
2022-12-24T22:16:24.897Z,9.50
2022-12-24T22:18:51.324Z,8.03
2022-12-24T22:21:17.607Z,8.23
2022-12-24T22:23:43.843Z,8.70
2022-12-24T22:26:11.178Z,7.73
2022-12-24T22:28:37.441Z,7.43
2022-12-24T22:31:04.542Z,7.60
2022-12-24T22:33:32.550Z,7.53
2022-12-24T22:35:58.729Z,7.50
2022-12-24T22:38:25.015Z,7.80
2022-12-24T22:40:51.191Z,6.60
2022-12-24T22:43:17.413Z,8.73
2022-12-24T22:45:43.683Z,7.70
2022-12-24T22:48:10.553Z,6.20
2022-12-24T22:50:39.046Z,6.73
2022-12-24T22:53:05.253Z,6.27
2022-12-24T22:55:33.663Z,7.00
2022-12-24T22:58:01.923Z,6.60
2022-12-24T23:00:39.871Z,6.53
2022-12-24T23:03:06.428Z,6.10
2022-12-24T23:05:33.505Z,6.87
2022-12-24T23:07:59.767Z,6.57
2022-12-24T23:10:26.026Z,5.67
2022-12-24T23:13:14.578Z,6.03
2022-12-24T23:15:41.652Z,6.50
2022-12-24T23:18:08.383Z,6.00
2022-12-24T23:20:38.059Z,5.93
2022-12-24T23:23:04.223Z,5.47
2022-12-24T23:25:30.431Z,5.57
2022-12-24T23:27:56.677Z,5.87
2022-12-24T23:30:22.920Z,6.00
2022-12-24T23:32:49.098Z,5.60
2022-12-24T23:35:15.430Z,6.17
2022-12-24T23:37:42.324Z,5.70
2022-12-24T23:40:09.722Z,5.80
2022-12-24T23:42:37.865Z,5.57
2022-12-24T23:45:04.926Z,5.40
2022-12-24T23:47:31.169Z,6.00
2022-12-24T23:49:57.394Z,5.67
2022-12-24T23:52:23.618Z,6.43
2022-12-24T23:54:50.463Z,6.50
